sensor_id;sensor_type;location;lat;lon;timestamp;P1;durP1;ratioP1;P2;durP2;ratioP2
5569;SDS011;2808;51.240;6.794;2023-08-24T00:00:41;19.83;;;5.23;;
5569;SDS011;2808;51.240;6.794;2023-08-24T00:03:10;12.80;;;4.90;;
5569;SDS011;2808;51.240;6.794;2023-08-24T00:05:38;12.10;;;4.90;;
5569;SDS011;2808;51.240;6.794;2023-08-24T00:08:07;10.70;;;4.47;;
5569;SDS011;2808;51.240;6.794;2023-08-24T00:10:35;11.33;;;4.60;;
5569;SDS011;2808;51.240;6.794;2023-08-24T00:13:04;8.83;;;4.13;;
5569;SDS011;2808;51.240;6.794;2023-08-24T00:15:32;11.80;;;4.47;;
5569;SDS011;2808;51.240;6.794;2023-08-24T00:18:00;12.63;;;4.50;;
5569;SDS011;2808;51.240;6.794;2023-08-24T00:20:29;7.60;;;4.13;;
5569;SDS011;2808;51.240;6.794;2023-08-24T00:23:00;18.50;;;4.80;;
5569;SDS011;2808;51.240;6.794;2023-08-24T00:25:27;11.27;;;4.47;;
5569;SDS011;2808;51.240;6.794;2023-08-24T00:27:55;10.00;;;4.30;;
5569;SDS011;2808;51.240;6.794;2023-08-24T00:30:26;8.97;;;4.43;;
5569;SDS011;2808;51.240;6.794;2023-08-24T00:32:55;12.40;;;4.20;;
5569;SDS011;2808;51.240;6.794;2023-08-24T00:35:23;9.47;;;4.10;;
5569;SDS011;2808;51.240;6.794;2023-08-24T00:37:52;8.43;;;4.60;;
5569;SDS011;2808;51.240;6.794;2023-08-24T00:40:20;8.97;;;4.10;;
5569;SDS011;2808;51.240;6.794;2023-08-24T00:42:47;7.97;;;3.80;;
5569;SDS011;2808;51.240;6.794;2023-08-24T00:45:15;11.47;;;4.47;;
5569;SDS011;2808;51.240;6.794;2023-08-24T00:47:46;12.20;;;4.27;;
5569;SDS011;2808;51.240;6.794;2023-08-24T00:50:14;11.37;;;4.27;;
5569;SDS011;2808;51.240;6.794;2023-08-24T00:52:43;9.20;;;4.43;;
5569;SDS011;2808;51.240;6.794;2023-08-24T00:55:14;9.23;;;4.33;;
5569;SDS011;2808;51.240;6.794;2023-08-24T00:57:43;7.70;;;4.00;;
5569;SDS011;2808;51.240;6.794;2023-08-24T01:00:11;11.00;;;3.90;;
5569;SDS011;2808;51.240;6.794;2023-08-24T01:02:39;10.30;;;4.50;;
5569;SDS011;2808;51.240;6.794;2023-08-24T01:05:10;10.80;;;4.13;;
5569;SDS011;2808;51.240;6.794;2023-08-24T01:07:38;12.00;;;4.00;;
5569;SDS011;2808;51.240;6.794;2023-08-24T01:10:06;13.90;;;4.00;;
5569;SDS011;2808;51.240;6.794;2023-08-24T01:12:43;10.40;;;4.00;;
5569;SDS011;2808;51.240;6.794;2023-08-24T01:15:19;12.33;;;4.30;;
5569;SDS011;2808;51.240;6.794;2023-08-24T01:17:53;11.37;;;4.70;;
5569;SDS011;2808;51.240;6.794;2023-08-24T01:20:27;16.97;;;4.87;;
5569;SDS011;2808;51.240;6.794;2023-08-24T01:22:55;10.70;;;4.23;;
5569;SDS011;2808;51.240;6.794;2023-08-24T01:25:32;10.20;;;4.53;;
5569;SDS011;2808;51.240;6.794;2023-08-24T01:28:06;9.63;;;5.17;;
5569;SDS011;2808;51.240;6.794;2023-08-24T01:30:34;11.33;;;5.60;;
5569;SDS011;2808;51.240;6.794;2023-08-24T01:33:02;12.80;;;5.50;;
5569;SDS011;2808;51.240;6.794;2023-08-24T01:35:30;12.73;;;5.57;;
5569;SDS011;2808;51.240;6.794;2023-08-24T01:37:58;11.57;;;4.80;;
5569;SDS011;2808;51.240;6.794;2023-08-24T01:40:31;13.97;;;5.13;;
5569;SDS011;2808;51.240;6.794;2023-08-24T01:43:07;16.70;;;5.80;;
5569;SDS011;2808;51.240;6.794;2023-08-24T01:45:38;14.70;;;5.87;;
5569;SDS011;2808;51.240;6.794;2023-08-24T01:48:14;17.50;;;5.87;;
5569;SDS011;2808;51.240;6.794;2023-08-24T01:50:42;15.90;;;5.53;;
5569;SDS011;2808;51.240;6.794;2023-08-24T01:53:10;13.27;;;5.77;;
5569;SDS011;2808;51.240;6.794;2023-08-24T01:55:41;10.20;;;5.43;;
5569;SDS011;2808;51.240;6.794;2023-08-24T01:58:10;12.23;;;5.10;;
5569;SDS011;2808;51.240;6.794;2023-08-24T02:00:37;15.53;;;4.83;;
5569;SDS011;2808;51.240;6.794;2023-08-24T02:03:04;20.93;;;5.73;;
5569;SDS011;2808;51.240;6.794;2023-08-24T02:05:32;13.97;;;5.27;;
5569;SDS011;2808;51.240;6.794;2023-08-24T02:08:01;13.57;;;5.23;;
5569;SDS011;2808;51.240;6.794;2023-08-24T02:10:29;14.33;;;4.73;;
5569;SDS011;2808;51.240;6.794;2023-08-24T02:12:57;12.57;;;4.90;;
5569;SDS011;2808;51.240;6.794;2023-08-24T02:15:26;10.40;;;4.50;;
5569;SDS011;2808;51.240;6.794;2023-08-24T02:17:53;14.90;;;4.70;;
5569;SDS011;2808;51.240;6.794;2023-08-24T02:20:21;8.50;;;4.00;;
5569;SDS011;2808;51.240;6.794;2023-08-24T02:22:49;11.33;;;4.70;;
5569;SDS011;2808;51.240;6.794;2023-08-24T02:25:16;7.30;;;4.27;;
5569;SDS011;2808;51.240;6.794;2023-08-24T02:27:44;11.63;;;4.80;;
5569;SDS011;2808;51.240;6.794;2023-08-24T02:30:14;9.87;;;4.30;;
5569;SDS011;2808;51.240;6.794;2023-08-24T02:32:43;8.83;;;4.20;;
5569;SDS011;2808;51.240;6.794;2023-08-24T02:35:10;11.33;;;4.80;;
5569;SDS011;2808;51.240;6.794;2023-08-24T02:37:38;14.30;;;5.00;;
5569;SDS011;2808;51.240;6.794;2023-08-24T02:40:06;9.17;;;4.37;;
5569;SDS011;2808;51.240;6.794;2023-08-24T02:42:34;11.60;;;4.10;;
5569;SDS011;2808;51.240;6.794;2023-08-24T02:45:02;13.70;;;4.87;;
5569;SDS011;2808;51.240;6.794;2023-08-24T02:47:31;11.13;;;4.80;;
5569;SDS011;2808;51.240;6.794;2023-08-24T02:50:00;11.70;;;5.57;;
5569;SDS011;2808;51.240;6.794;2023-08-24T02:52:29;8.67;;;4.40;;
5569;SDS011;2808;51.240;6.794;2023-08-24T02:54:56;16.83;;;4.87;;
5569;SDS011;2808;51.240;6.794;2023-08-24T02:57:24;11.50;;;5.00;;
5569;SDS011;2808;51.240;6.794;2023-08-24T02:59:51;8.47;;;4.07;;
5569;SDS011;2808;51.240;6.794;2023-08-24T03:02:19;13.20;;;5.00;;
5569;SDS011;2808;51.240;6.794;2023-08-24T03:04:49;11.73;;;4.90;;
5569;SDS011;2808;51.240;6.794;2023-08-24T03:07:18;11.70;;;4.60;;
5569;SDS011;2808;51.240;6.794;2023-08-24T03:09:46;17.43;;;4.87;;
5569;SDS011;2808;51.240;6.794;2023-08-24T03:12:13;7.90;;;3.80;;
5569;SDS011;2808;51.240;6.794;2023-08-24T03:14:43;11.97;;;4.17;;
5569;SDS011;2808;51.240;6.794;2023-08-24T03:17:11;16.70;;;4.03;;
5569;SDS011;2808;51.240;6.794;2023-08-24T03:19:38;10.10;;;4.53;;
5569;SDS011;2808;51.240;6.794;2023-08-24T03:22:06;8.90;;;4.30;;
5569;SDS011;2808;51.240;6.794;2023-08-24T03:24:34;9.87;;;4.40;;
5569;SDS011;2808;51.240;6.794;2023-08-24T03:27:02;9.83;;;4.37;;
5569;SDS011;2808;51.240;6.794;2023-08-24T03:29:51;9.73;;;4.33;;
5569;SDS011;2808;51.240;6.794;2023-08-24T03:32:20;10.87;;;4.93;;
5569;SDS011;2808;51.240;6.794;2023-08-24T03:34:47;11.30;;;4.50;;
5569;SDS011;2808;51.240;6.794;2023-08-24T03:37:15;13.80;;;4.80;;
5569;SDS011;2808;51.240;6.794;2023-08-24T03:39:44;9.10;;;4.43;;
5569;SDS011;2808;51.240;6.794;2023-08-24T03:42:11;10.50;;;4.30;;
5569;SDS011;2808;51.240;6.794;2023-08-24T03:44:39;12.00;;;5.17;;
5569;SDS011;2808;51.240;6.794;2023-08-24T03:47:06;11.37;;;4.40;;
5569;SDS011;2808;51.240;6.794;2023-08-24T03:49:35;9.20;;;4.60;;
5569;SDS011;2808;51.240;6.794;2023-08-24T03:52:04;8.67;;;4.33;;
5569;SDS011;2808;51.240;6.794;2023-08-24T03:54:31;8.73;;;4.70;;
5569;SDS011;2808;51.240;6.794;2023-08-24T03:57:23;14.37;;;4.97;;
5569;SDS011;2808;51.240;6.794;2023-08-24T03:59:50;7.83;;;4.10;;
5569;SDS011;2808;51.240;6.794;2023-08-24T04:02:18;13.43;;;5.07;;
5569;SDS011;2808;51.240;6.794;2023-08-24T04:04:45;10.80;;;4.43;;
5569;SDS011;2808;51.240;6.794;2023-08-24T04:07:13;10.33;;;4.40;;
5569;SDS011;2808;51.240;6.794;2023-08-24T04:09:41;11.00;;;4.07;;
5569;SDS011;2808;51.240;6.794;2023-08-24T04:12:11;9.53;;;4.23;;
5569;SDS011;2808;51.240;6.794;2023-08-24T04:14:41;13.93;;;4.83;;
5569;SDS011;2808;51.240;6.794;2023-08-24T04:17:09;11.17;;;5.80;;
5569;SDS011;2808;51.240;6.794;2023-08-24T04:19:40;22.20;;;10.50;;
5569;SDS011;2808;51.240;6.794;2023-08-24T04:22:07;21.13;;;11.23;;
5569;SDS011;2808;51.240;6.794;2023-08-24T04:24:35;19.83;;;7.90;;
5569;SDS011;2808;51.240;6.794;2023-08-24T04:27:04;14.23;;;7.00;;
5569;SDS011;2808;51.240;6.794;2023-08-24T04:29:34;14.23;;;5.03;;
5569;SDS011;2808;51.240;6.794;2023-08-24T04:32:03;16.50;;;5.40;;
5569;SDS011;2808;51.240;6.794;2023-08-24T04:34:34;14.20;;;7.07;;
5569;SDS011;2808;51.240;6.794;2023-08-24T04:37:03;16.23;;;6.13;;
5569;SDS011;2808;51.240;6.794;2023-08-24T04:39:32;14.57;;;4.80;;
5569;SDS011;2808;51.240;6.794;2023-08-24T04:42:01;10.33;;;4.30;;
5569;SDS011;2808;51.240;6.794;2023-08-24T04:44:28;10.50;;;4.57;;
5569;SDS011;2808;51.240;6.794;2023-08-24T04:46:56;11.83;;;5.23;;
5569;SDS011;2808;51.240;6.794;2023-08-24T04:49:24;16.90;;;5.60;;
5569;SDS011;2808;51.240;6.794;2023-08-24T04:51:53;9.20;;;5.40;;
5569;SDS011;2808;51.240;6.794;2023-08-24T04:54:23;16.93;;;5.00;;
5569;SDS011;2808;51.240;6.794;2023-08-24T04:56:55;10.97;;;5.47;;
5569;SDS011;2808;51.240;6.794;2023-08-24T04:59:23;12.13;;;5.50;;
5569;SDS011;2808;51.240;6.794;2023-08-24T05:01:50;14.37;;;4.90;;
5569;SDS011;2808;51.240;6.794;2023-08-24T05:04:22;10.90;;;4.93;;
5569;SDS011;2808;51.240;6.794;2023-08-24T05:06:51;10.97;;;5.23;;
5569;SDS011;2808;51.240;6.794;2023-08-24T05:09:28;14.53;;;4.20;;
5569;SDS011;2808;51.240;6.794;2023-08-24T05:11:55;10.13;;;4.73;;
5569;SDS011;2808;51.240;6.794;2023-08-24T05:14:23;8.87;;;4.27;;
5569;SDS011;2808;51.240;6.794;2023-08-24T05:16:50;10.10;;;4.70;;
5569;SDS011;2808;51.240;6.794;2023-08-24T05:19:18;8.83;;;4.60;;
5569;SDS011;2808;51.240;6.794;2023-08-24T05:21:47;12.93;;;4.67;;
5569;SDS011;2808;51.240;6.794;2023-08-24T05:24:14;15.80;;;5.83;;
5569;SDS011;2808;51.240;6.794;2023-08-24T05:26:44;12.03;;;5.30;;
5569;SDS011;2808;51.240;6.794;2023-08-24T05:29:14;12.80;;;6.37;;
5569;SDS011;2808;51.240;6.794;2023-08-24T05:31:42;11.00;;;4.70;;
5569;SDS011;2808;51.240;6.794;2023-08-24T05:34:11;11.03;;;5.27;;
5569;SDS011;2808;51.240;6.794;2023-08-24T05:36:38;13.37;;;4.93;;
5569;SDS011;2808;51.240;6.794;2023-08-24T05:39:07;22.07;;;5.90;;
5569;SDS011;2808;51.240;6.794;2023-08-24T05:41:35;15.80;;;5.53;;
5569;SDS011;2808;51.240;6.794;2023-08-24T05:44:04;13.60;;;6.23;;
5569;SDS011;2808;51.240;6.794;2023-08-24T05:46:32;17.53;;;5.57;;
5569;SDS011;2808;51.240;6.794;2023-08-24T05:49:00;9.57;;;5.30;;
5569;SDS011;2808;51.240;6.794;2023-08-24T05:51:28;14.73;;;5.40;;
5569;SDS011;2808;51.240;6.794;2023-08-24T06:00:40;10.37;;;4.80;;
5569;SDS011;2808;51.240;6.794;2023-08-24T06:03:08;12.73;;;6.23;;
5569;SDS011;2808;51.240;6.794;2023-08-24T06:05:38;11.87;;;5.33;;
5569;SDS011;2808;51.240;6.794;2023-08-24T06:08:05;16.03;;;5.50;;
5569;SDS011;2808;51.240;6.794;2023-08-24T06:10:33;18.50;;;5.67;;
5569;SDS011;2808;51.240;6.794;2023-08-24T06:13:00;13.00;;;5.53;;
5569;SDS011;2808;51.240;6.794;2023-08-24T06:15:28;9.17;;;5.23;;
5569;SDS011;2808;51.240;6.794;2023-08-24T06:17:57;11.07;;;6.13;;
5569;SDS011;2808;51.240;6.794;2023-08-24T06:20:25;15.00;;;5.20;;
5569;SDS011;2808;51.240;6.794;2023-08-24T06:22:53;12.00;;;5.43;;
5569;SDS011;2808;51.240;6.794;2023-08-24T06:25:21;10.57;;;4.70;;
5569;SDS011;2808;51.240;6.794;2023-08-24T06:27:51;17.17;;;5.50;;
5569;SDS011;2808;51.240;6.794;2023-08-24T06:30:21;11.80;;;5.07;;
5569;SDS011;2808;51.240;6.794;2023-08-24T06:32:51;12.17;;;5.50;;
5569;SDS011;2808;51.240;6.794;2023-08-24T06:35:20;15.33;;;5.87;;
5569;SDS011;2808;51.240;6.794;2023-08-24T06:37:48;12.70;;;4.60;;
5569;SDS011;2808;51.240;6.794;2023-08-24T06:40:16;17.37;;;5.37;;
5569;SDS011;2808;51.240;6.794;2023-08-24T06:42:43;9.70;;;4.67;;
5569;SDS011;2808;51.240;6.794;2023-08-24T06:45:11;14.20;;;4.47;;
5569;SDS011;2808;51.240;6.794;2023-08-24T06:47:39;13.40;;;4.70;;
5569;SDS011;2808;51.240;6.794;2023-08-24T06:50:07;13.50;;;4.73;;
5569;SDS011;2808;51.240;6.794;2023-08-24T06:52:36;12.17;;;4.70;;
5569;SDS011;2808;51.240;6.794;2023-08-24T06:55:04;8.80;;;4.57;;
5569;SDS011;2808;51.240;6.794;2023-08-24T06:57:35;12.87;;;4.90;;
5569;SDS011;2808;51.240;6.794;2023-08-24T07:00:03;9.17;;;4.23;;
5569;SDS011;2808;51.240;6.794;2023-08-24T07:02:34;15.77;;;4.57;;
5569;SDS011;2808;51.240;6.794;2023-08-24T07:05:04;7.37;;;4.47;;
5569;SDS011;2808;51.240;6.794;2023-08-24T07:07:33;7.80;;;3.80;;
5569;SDS011;2808;51.240;6.794;2023-08-24T07:10:03;9.10;;;3.80;;
5569;SDS011;2808;51.240;6.794;2023-08-24T07:12:31;9.93;;;4.07;;
5569;SDS011;2808;51.240;6.794;2023-08-24T07:15:06;8.80;;;3.80;;
5569;SDS011;2808;51.240;6.794;2023-08-24T07:17:34;7.77;;;3.70;;
5569;SDS011;2808;51.240;6.794;2023-08-24T07:20:02;13.63;;;3.83;;
5569;SDS011;2808;51.240;6.794;2023-08-24T07:22:31;9.40;;;3.67;;
5569;SDS011;2808;51.240;6.794;2023-08-24T07:24:59;10.90;;;3.50;;
5569;SDS011;2808;51.240;6.794;2023-08-24T07:27:31;13.23;;;3.80;;
5569;SDS011;2808;51.240;6.794;2023-08-24T07:29:59;7.60;;;3.30;;
5569;SDS011;2808;51.240;6.794;2023-08-24T07:32:31;10.30;;;4.20;;
5569;SDS011;2808;51.240;6.794;2023-08-24T07:34:58;7.23;;;3.17;;
5569;SDS011;2808;51.240;6.794;2023-08-24T07:40:16;11.20;;;4.27;;
5569;SDS011;2808;51.240;6.794;2023-08-24T07:42:46;9.57;;;3.57;;
5569;SDS011;2808;51.240;6.794;2023-08-24T07:45:16;10.70;;;3.80;;
5569;SDS011;2808;51.240;6.794;2023-08-24T07:47:43;6.90;;;3.20;;
5569;SDS011;2808;51.240;6.794;2023-08-24T07:50:14;9.50;;;3.23;;
5569;SDS011;2808;51.240;6.794;2023-08-24T07:52:41;6.73;;;3.10;;
5569;SDS011;2808;51.240;6.794;2023-08-24T07:55:08;8.10;;;2.80;;
5569;SDS011;2808;51.240;6.794;2023-08-24T07:57:36;7.43;;;3.20;;
5569;SDS011;2808;51.240;6.794;2023-08-24T08:00:06;9.50;;;2.90;;
5569;SDS011;2808;51.240;6.794;2023-08-24T08:02:35;8.60;;;2.80;;
5569;SDS011;2808;51.240;6.794;2023-08-24T08:05:03;9.50;;;3.30;;
5569;SDS011;2808;51.240;6.794;2023-08-24T08:07:32;8.83;;;3.20;;
5569;SDS011;2808;51.240;6.794;2023-08-24T08:10:00;7.30;;;2.70;;
5569;SDS011;2808;51.240;6.794;2023-08-24T08:12:28;9.67;;;2.70;;
5569;SDS011;2808;51.240;6.794;2023-08-24T08:14:57;7.70;;;2.90;;
5569;SDS011;2808;51.240;6.794;2023-08-24T08:17:29;6.60;;;3.10;;
5569;SDS011;2808;51.240;6.794;2023-08-24T08:19:58;9.27;;;3.20;;
5569;SDS011;2808;51.240;6.794;2023-08-24T08:22:25;5.63;;;2.90;;
5569;SDS011;2808;51.240;6.794;2023-08-24T08:24:53;6.13;;;2.80;;
5569;SDS011;2808;51.240;6.794;2023-08-24T08:27:21;6.70;;;2.83;;
5569;SDS011;2808;51.240;6.794;2023-08-24T08:29:49;9.80;;;3.07;;
5569;SDS011;2808;51.240;6.794;2023-08-24T08:32:17;11.17;;;3.50;;
5569;SDS011;2808;51.240;6.794;2023-08-24T08:34:46;7.97;;;2.90;;
5569;SDS011;2808;51.240;6.794;2023-08-24T08:37:13;6.20;;;2.60;;
5569;SDS011;2808;51.240;6.794;2023-08-24T08:39:41;8.90;;;3.20;;
5569;SDS011;2808;51.240;6.794;2023-08-24T08:42:11;8.50;;;3.10;;
5569;SDS011;2808;51.240;6.794;2023-08-24T08:44:42;8.20;;;2.83;;
5569;SDS011;2808;51.240;6.794;2023-08-24T08:47:11;15.47;;;3.30;;
5569;SDS011;2808;51.240;6.794;2023-08-24T08:49:39;6.37;;;3.07;;
5569;SDS011;2808;51.240;6.794;2023-08-24T08:52:10;10.77;;;3.03;;
5569;SDS011;2808;51.240;6.794;2023-08-24T08:54:41;6.47;;;2.80;;
5569;SDS011;2808;51.240;6.794;2023-08-24T08:57:08;7.03;;;3.10;;
5569;SDS011;2808;51.240;6.794;2023-08-24T08:59:37;6.70;;;2.70;;
5569;SDS011;2808;51.240;6.794;2023-08-24T09:02:05;8.43;;;3.13;;
5569;SDS011;2808;51.240;6.794;2023-08-24T09:04:37;9.67;;;3.50;;
5569;SDS011;2808;51.240;6.794;2023-08-24T09:07:08;8.20;;;3.00;;
5569;SDS011;2808;51.240;6.794;2023-08-24T09:09:38;8.90;;;2.77;;
5569;SDS011;2808;51.240;6.794;2023-08-24T09:12:06;8.43;;;3.30;;
5569;SDS011;2808;51.240;6.794;2023-08-24T09:14:34;7.20;;;3.10;;
5569;SDS011;2808;51.240;6.794;2023-08-24T09:17:01;6.93;;;3.00;;
5569;SDS011;2808;51.240;6.794;2023-08-24T09:19:29;8.87;;;2.80;;
5569;SDS011;2808;51.240;6.794;2023-08-24T09:22:01;5.40;;;2.70;;
5569;SDS011;2808;51.240;6.794;2023-08-24T09:24:30;7.47;;;3.07;;
5569;SDS011;2808;51.240;6.794;2023-08-24T09:26:58;6.67;;;2.63;;
5569;SDS011;2808;51.240;6.794;2023-08-24T09:29:26;9.97;;;3.30;;
5569;SDS011;2808;51.240;6.794;2023-08-24T09:31:53;5.43;;;2.80;;
5569;SDS011;2808;51.240;6.794;2023-08-24T09:34:22;6.90;;;3.17;;
5569;SDS011;2808;51.240;6.794;2023-08-24T09:36:52;8.00;;;2.93;;
5569;SDS011;2808;51.240;6.794;2023-08-24T09:39:20;6.37;;;2.93;;
5569;SDS011;2808;51.240;6.794;2023-08-24T09:41:50;4.97;;;2.97;;
5569;SDS011;2808;51.240;6.794;2023-08-24T09:44:18;7.53;;;3.90;;
5569;SDS011;2808;51.240;6.794;2023-08-24T09:46:45;6.20;;;2.90;;
5569;SDS011;2808;51.240;6.794;2023-08-24T09:49:21;7.03;;;2.77;;
5569;SDS011;2808;51.240;6.794;2023-08-24T09:51:49;5.67;;;2.57;;
5569;SDS011;2808;51.240;6.794;2023-08-24T09:54:26;7.97;;;2.80;;
5569;SDS011;2808;51.240;6.794;2023-08-24T09:56:55;6.17;;;2.67;;
5569;SDS011;2808;51.240;6.794;2023-08-24T09:59:25;7.70;;;2.97;;
5569;SDS011;2808;51.240;6.794;2023-08-24T10:01:54;6.83;;;3.03;;
5569;SDS011;2808;51.240;6.794;2023-08-24T10:04:23;7.87;;;3.33;;
5569;SDS011;2808;51.240;6.794;2023-08-24T10:06:52;9.67;;;3.37;;
5569;SDS011;2808;51.240;6.794;2023-08-24T10:09:25;5.63;;;2.80;;
5569;SDS011;2808;51.240;6.794;2023-08-24T10:12:00;4.87;;;2.50;;
5569;SDS011;2808;51.240;6.794;2023-08-24T10:14:31;7.97;;;2.80;;
5569;SDS011;2808;51.240;6.794;2023-08-24T10:17:02;7.47;;;2.83;;
5569;SDS011;2808;51.240;6.794;2023-08-24T10:19:30;7.43;;;3.10;;
5569;SDS011;2808;51.240;6.794;2023-08-24T10:21:59;7.63;;;3.47;;
5569;SDS011;2808;51.240;6.794;2023-08-24T10:24:27;7.63;;;3.20;;
5569;SDS011;2808;51.240;6.794;2023-08-24T10:26:55;6.40;;;2.90;;
5569;SDS011;2808;51.240;6.794;2023-08-24T10:29:25;7.27;;;3.13;;
5569;SDS011;2808;51.240;6.794;2023-08-24T10:31:54;7.00;;;2.63;;
5569;SDS011;2808;51.240;6.794;2023-08-24T10:34:22;6.40;;;3.00;;
5569;SDS011;2808;51.240;6.794;2023-08-24T10:36:52;7.00;;;2.90;;
5569;SDS011;2808;51.240;6.794;2023-08-24T10:39:26;9.10;;;3.07;;
5569;SDS011;2808;51.240;6.794;2023-08-24T10:41:54;9.20;;;3.03;;
5569;SDS011;2808;51.240;6.794;2023-08-24T10:44:25;9.77;;;3.40;;
5569;SDS011;2808;51.240;6.794;2023-08-24T10:47:05;8.23;;;2.90;;
5569;SDS011;2808;51.240;6.794;2023-08-24T10:49:34;8.60;;;3.60;;
5569;SDS011;2808;51.240;6.794;2023-08-24T10:52:17;12.83;;;3.57;;
5569;SDS011;2808;51.240;6.794;2023-08-24T10:54:48;7.00;;;3.13;;
5569;SDS011;2808;51.240;6.794;2023-08-24T10:57:17;8.53;;;3.07;;
5569;SDS011;2808;51.240;6.794;2023-08-24T10:59:58;9.07;;;3.63;;
5569;SDS011;2808;51.240;6.794;2023-08-24T11:02:31;6.80;;;3.00;;
5569;SDS011;2808;51.240;6.794;2023-08-24T11:05:14;5.43;;;2.60;;
5569;SDS011;2808;51.240;6.794;2023-08-24T11:07:49;7.83;;;3.23;;
5569;SDS011;2808;51.240;6.794;2023-08-24T11:10:18;8.80;;;3.20;;
5569;SDS011;2808;51.240;6.794;2023-08-24T11:13:05;6.67;;;2.87;;
5569;SDS011;2808;51.240;6.794;2023-08-24T11:15:36;9.33;;;3.17;;
5569;SDS011;2808;51.240;6.794;2023-08-24T11:21:05;10.23;;;3.60;;
5569;SDS011;2808;51.240;6.794;2023-08-24T11:23:32;6.07;;;2.77;;
5569;SDS011;2808;51.240;6.794;2023-08-24T11:26:00;7.87;;;2.97;;
5569;SDS011;2808;51.240;6.794;2023-08-24T11:46:11;8.43;;;3.37;;
5569;SDS011;2808;51.240;6.794;2023-08-24T11:49:01;9.03;;;3.13;;
5569;SDS011;2808;51.240;6.794;2023-08-24T11:52:06;12.10;;;3.63;;
5569;SDS011;2808;51.240;6.794;2023-08-24T11:54:47;7.50;;;3.30;;
5569;SDS011;2808;51.240;6.794;2023-08-24T11:57:18;7.43;;;3.20;;
5569;SDS011;2808;51.240;6.794;2023-08-24T12:00:12;8.20;;;3.00;;
5569;SDS011;2808;51.240;6.794;2023-08-24T12:02:41;11.10;;;3.83;;
5569;SDS011;2808;51.240;6.794;2023-08-24T12:08:49;14.17;;;6.10;;
5569;SDS011;2808;51.240;6.794;2023-08-24T12:11:17;12.17;;;6.07;;
5569;SDS011;2808;51.240;6.794;2023-08-24T12:13:47;23.97;;;13.87;;
5569;SDS011;2808;51.240;6.794;2023-08-24T12:16:23;15.60;;;7.53;;
5569;SDS011;2808;51.240;6.794;2023-08-24T12:18:58;20.50;;;10.20;;
5569;SDS011;2808;51.240;6.794;2023-08-24T12:38:45;8.43;;;3.90;;
5569;SDS011;2808;51.240;6.794;2023-08-24T12:41:17;17.07;;;4.00;;
5569;SDS011;2808;51.240;6.794;2023-08-24T12:44:11;9.20;;;3.50;;
5569;SDS011;2808;51.240;6.794;2023-08-24T12:47:12;10.90;;;3.83;;
5569;SDS011;2808;51.240;6.794;2023-08-24T12:50:22;13.20;;;3.40;;
5569;SDS011;2808;51.240;6.794;2023-08-24T12:53:00;8.23;;;3.43;;
5569;SDS011;2808;51.240;6.794;2023-08-24T12:58:37;12.13;;;3.83;;
5569;SDS011;2808;51.240;6.794;2023-08-24T13:01:13;8.97;;;2.73;;
5569;SDS011;2808;51.240;6.794;2023-08-24T13:03:52;9.83;;;4.17;;
5569;SDS011;2808;51.240;6.794;2023-08-24T13:06:22;8.37;;;3.93;;
5569;SDS011;2808;51.240;6.794;2023-08-24T13:16:12;9.73;;;3.83;;
5569;SDS011;2808;51.240;6.794;2023-08-24T13:18:40;7.83;;;3.57;;
5569;SDS011;2808;51.240;6.794;2023-08-24T13:21:12;9.80;;;3.40;;
5569;SDS011;2808;51.240;6.794;2023-08-24T17:09:11;18.70;;;2.50;;
5569;SDS011;2808;51.240;6.794;2023-08-24T17:11:39;11.27;;;2.23;;
5569;SDS011;2808;51.240;6.794;2023-08-24T17:14:28;7.13;;;2.37;;
5569;SDS011;2808;51.240;6.794;2023-08-24T17:16:59;10.33;;;2.27;;
5569;SDS011;2808;51.240;6.794;2023-08-24T17:19:28;16.03;;;3.73;;
5569;SDS011;2808;51.240;6.794;2023-08-24T17:21:59;14.60;;;3.60;;
5569;SDS011;2808;51.240;6.794;2023-08-24T17:24:28;8.97;;;3.47;;
5569;SDS011;2808;51.240;6.794;2023-08-24T17:26:55;9.87;;;3.97;;
5569;SDS011;2808;51.240;6.794;2023-08-24T17:29:23;11.07;;;2.63;;
5569;SDS011;2808;51.240;6.794;2023-08-24T17:31:50;9.63;;;2.93;;
5569;SDS011;2808;51.240;6.794;2023-08-24T17:34:18;6.97;;;2.87;;
5569;SDS011;2808;51.240;6.794;2023-08-24T17:36:47;11.23;;;2.80;;
5569;SDS011;2808;51.240;6.794;2023-08-24T17:39:15;7.77;;;3.00;;
5569;SDS011;2808;51.240;6.794;2023-08-24T17:41:51;15.60;;;3.60;;
5569;SDS011;2808;51.240;6.794;2023-08-24T17:44:20;12.90;;;3.30;;
5569;SDS011;2808;51.240;6.794;2023-08-24T17:47:02;6.90;;;2.90;;
5569;SDS011;2808;51.240;6.794;2023-08-24T17:49:54;7.97;;;3.00;;
5569;SDS011;2808;51.240;6.794;2023-08-24T17:52:48;6.43;;;2.70;;
5569;SDS011;2808;51.240;6.794;2023-08-24T17:55:29;12.97;;;3.57;;
5569;SDS011;2808;51.240;6.794;2023-08-24T17:58:02;13.10;;;5.10;;
5569;SDS011;2808;51.240;6.794;2023-08-24T18:00:35;13.40;;;4.40;;
5569;SDS011;2808;51.240;6.794;2023-08-24T18:03:03;10.40;;;3.80;;
5569;SDS011;2808;51.240;6.794;2023-08-24T18:05:31;7.07;;;3.00;;
5569;SDS011;2808;51.240;6.794;2023-08-24T18:08:08;9.30;;;3.43;;
5569;SDS011;2808;51.240;6.794;2023-08-24T18:10:49;10.77;;;3.07;;
5569;SDS011;2808;51.240;6.794;2023-08-24T18:13:25;7.13;;;2.70;;
5569;SDS011;2808;51.240;6.794;2023-08-24T18:15:56;8.37;;;2.50;;
5569;SDS011;2808;51.240;6.794;2023-08-24T18:18:40;8.70;;;3.10;;
5569;SDS011;2808;51.240;6.794;2023-08-24T18:21:12;9.50;;;3.10;;
5569;SDS011;2808;51.240;6.794;2023-08-24T18:23:46;10.63;;;3.20;;
5569;SDS011;2808;51.240;6.794;2023-08-24T18:26:19;13.10;;;3.77;;
5569;SDS011;2808;51.240;6.794;2023-08-24T18:28:51;13.20;;;3.87;;
5569;SDS011;2808;51.240;6.794;2023-08-24T18:31:27;7.67;;;3.10;;
5569;SDS011;2808;51.240;6.794;2023-08-24T18:34:08;8.50;;;3.10;;
5569;SDS011;2808;51.240;6.794;2023-08-24T18:37:18;11.23;;;3.50;;
5569;SDS011;2808;51.240;6.794;2023-08-24T18:39:50;11.80;;;3.13;;
5569;SDS011;2808;51.240;6.794;2023-08-24T18:50:20;7.90;;;2.87;;
5569;SDS011;2808;51.240;6.794;2023-08-24T18:59:16;13.03;;;3.53;;
5569;SDS011;2808;51.240;6.794;2023-08-24T19:02:41;7.17;;;2.80;;
5569;SDS011;2808;51.240;6.794;2023-08-24T19:05:14;8.90;;;3.00;;
5569;SDS011;2808;51.240;6.794;2023-08-24T19:07:43;8.80;;;3.47;;
5569;SDS011;2808;51.240;6.794;2023-08-24T19:10:11;8.97;;;3.60;;
5569;SDS011;2808;51.240;6.794;2023-08-24T19:12:39;9.13;;;3.50;;
5569;SDS011;2808;51.240;6.794;2023-08-24T19:15:08;7.17;;;3.00;;
5569;SDS011;2808;51.240;6.794;2023-08-24T19:17:36;9.60;;;2.83;;
5569;SDS011;2808;51.240;6.794;2023-08-24T19:20:04;6.63;;;3.10;;
5569;SDS011;2808;51.240;6.794;2023-08-24T19:22:43;11.60;;;5.70;;
5569;SDS011;2808;51.240;6.794;2023-08-24T19:25:13;21.27;;;11.63;;
5569;SDS011;2808;51.240;6.794;2023-08-24T19:27:55;15.33;;;8.00;;
5569;SDS011;2808;51.240;6.794;2023-08-24T19:30:25;12.87;;;5.83;;
5569;SDS011;2808;51.240;6.794;2023-08-24T19:33:03;6.93;;;3.50;;
5569;SDS011;2808;51.240;6.794;2023-08-24T19:35:31;9.50;;;4.47;;
5569;SDS011;2808;51.240;6.794;2023-08-24T19:38:00;16.67;;;7.30;;
5569;SDS011;2808;51.240;6.794;2023-08-24T19:40:34;12.93;;;5.03;;
5569;SDS011;2808;51.240;6.794;2023-08-24T19:43:12;10.40;;;4.27;;
5569;SDS011;2808;51.240;6.794;2023-08-24T19:45:42;12.13;;;4.13;;
5569;SDS011;2808;51.240;6.794;2023-08-24T19:48:12;14.00;;;4.03;;
5569;SDS011;2808;51.240;6.794;2023-08-24T19:50:51;7.37;;;3.13;;
5569;SDS011;2808;51.240;6.794;2023-08-24T19:53:30;9.67;;;4.07;;
5569;SDS011;2808;51.240;6.794;2023-08-24T19:56:02;11.20;;;3.40;;
5569;SDS011;2808;51.240;6.794;2023-08-24T19:58:31;12.97;;;6.03;;
5569;SDS011;2808;51.240;6.794;2023-08-24T20:01:04;11.17;;;5.97;;
5569;SDS011;2808;51.240;6.794;2023-08-24T20:03:32;12.20;;;5.30;;
5569;SDS011;2808;51.240;6.794;2023-08-24T20:06:00;11.13;;;5.23;;
5569;SDS011;2808;51.240;6.794;2023-08-24T20:11:30;13.00;;;4.20;;
5569;SDS011;2808;51.240;6.794;2023-08-24T20:14:01;9.30;;;4.00;;
5569;SDS011;2808;51.240;6.794;2023-08-24T20:16:33;10.37;;;3.30;;
5569;SDS011;2808;51.240;6.794;2023-08-24T20:19:03;7.50;;;3.30;;
5569;SDS011;2808;51.240;6.794;2023-08-24T20:21:30;15.60;;;3.77;;
5569;SDS011;2808;51.240;6.794;2023-08-24T20:24:05;10.60;;;4.13;;
5569;SDS011;2808;51.240;6.794;2023-08-24T20:26:33;10.27;;;3.93;;
5569;SDS011;2808;51.240;6.794;2023-08-24T20:29:06;8.20;;;3.87;;
5569;SDS011;2808;51.240;6.794;2023-08-24T20:31:40;9.20;;;3.63;;
5569;SDS011;2808;51.240;6.794;2023-08-24T20:34:07;7.87;;;3.60;;